createdAt,value
2023-03-11T00:00:04.051Z,980.73
2023-03-11T00:00:33.261Z,980.73
2023-03-11T00:01:05.167Z,980.83
2023-03-11T00:01:37.863Z,980.83
2023-03-11T00:02:09.238Z,980.83
2023-03-11T00:02:34.803Z,980.83
2023-03-11T00:02:57.555Z,980.83
2023-03-11T00:03:29.236Z,980.83
2023-03-11T00:04:01.178Z,980.93
2023-03-11T00:04:33.207Z,980.93
2023-03-11T00:05:05.753Z,981.04
2023-03-11T00:05:37.337Z,981.04
2023-03-11T00:06:09.178Z,981.04
2023-03-11T00:06:34.799Z,980.93
2023-03-11T00:06:57.147Z,980.93
2023-03-11T00:07:29.176Z,980.93
2023-03-11T00:08:02.432Z,981.14
2023-03-11T00:08:33.276Z,981.14
2023-03-11T00:09:05.220Z,980.83
2023-03-11T00:09:37.133Z,980.83
2023-03-11T00:10:09.454Z,981.04
2023-03-11T00:10:34.853Z,981.04
2023-03-11T00:10:57.351Z,981.04
2023-03-11T00:11:29.144Z,981.04
2023-03-11T00:12:01.177Z,981.04
2023-03-11T00:12:33.684Z,981.04
2023-03-11T00:13:05.194Z,981.04
2023-03-11T00:13:37.238Z,981.04
2023-03-11T00:14:09.171Z,980.93
2023-03-11T00:14:35.415Z,980.93
2023-03-11T00:14:57.161Z,980.93
2023-03-11T00:15:29.679Z,980.93
2023-03-11T00:16:03.432Z,980.83
2023-03-11T00:16:33.313Z,980.83
2023-03-11T00:17:05.221Z,980.73
2023-03-11T00:17:37.969Z,980.73
2023-03-11T00:18:09.146Z,981.24
2023-03-11T00:18:34.784Z,980.93
2023-03-11T00:18:57.125Z,980.93
2023-03-11T00:19:29.145Z,980.93
2023-03-11T00:20:03.755Z,981.14
2023-03-11T00:20:33.893Z,981.14
2023-03-11T00:21:05.149Z,980.83
2023-03-11T00:21:37.132Z,980.83
2023-03-11T00:22:09.751Z,981.34
2023-03-11T00:22:34.849Z,981.04
2023-03-11T00:22:57.187Z,981.04
2023-03-11T00:23:29.193Z,981.04
2023-03-11T00:24:02.406Z,981.24
2023-03-11T00:24:33.237Z,981.24
2023-03-11T00:25:05.660Z,981.24
2023-03-11T00:25:37.480Z,981.24
2023-03-11T00:26:09.430Z,981.04
2023-03-11T00:26:35.004Z,981.04
2023-03-11T00:26:57.130Z,981.04
2023-03-11T00:27:29.189Z,981.04
2023-03-11T00:28:01.198Z,981.34
2023-03-11T00:28:34.485Z,981.34
2023-03-11T00:29:05.185Z,981.14
2023-03-11T00:29:37.149Z,981.14
2023-03-11T00:30:11.131Z,981.34
2023-03-11T00:30:35.459Z,981.24
2023-03-11T00:30:57.553Z,981.24
2023-03-11T00:31:29.194Z,981.24
2023-03-11T00:32:01.205Z,981.24
2023-03-11T00:32:34.088Z,981.24
2023-03-11T00:33:05.218Z,981.34
2023-03-11T00:33:37.858Z,981.34
2023-03-11T00:34:09.161Z,981.24
2023-03-11T00:34:34.759Z,981.34
2023-03-11T00:34:57.127Z,981.34
2023-03-11T00:35:29.455Z,981.34
2023-03-11T00:36:01.610Z,981.34
2023-03-11T00:36:33.680Z,981.34
2023-03-11T00:37:05.197Z,981.34
2023-03-11T00:37:37.105Z,981.34
2023-03-11T00:38:09.134Z,981.41
2023-03-11T00:38:34.819Z,981.41
2023-03-11T00:38:57.250Z,981.41
2023-03-11T00:39:29.189Z,981.41
2023-03-11T00:40:04.033Z,981.34
2023-03-11T00:40:33.289Z,981.34
2023-03-11T00:41:05.196Z,981.34
2023-03-11T00:41:37.163Z,981.34
2023-03-11T00:42:09.173Z,981.41
2023-03-11T00:42:35.182Z,981.34
2023-03-11T00:42:57.154Z,981.34
2023-03-11T00:43:29.204Z,981.34
2023-03-11T00:44:01.201Z,981.41
2023-03-11T00:44:33.231Z,981.41
2023-03-11T00:45:05.734Z,981.51
2023-03-11T00:45:37.285Z,981.51
2023-03-11T00:46:09.421Z,981.41
2023-03-11T00:46:34.932Z,981.34
2023-03-11T00:46:57.202Z,981.34
2023-03-11T00:47:29.189Z,981.34
2023-03-11T00:48:01.183Z,981.41
2023-03-11T00:48:33.243Z,981.41
2023-03-11T00:49:05.273Z,981.41
2023-03-11T00:49:37.988Z,981.41
2023-03-11T00:50:09.468Z,981.34
2023-03-11T00:50:34.784Z,981.41
2023-03-11T00:50:57.410Z,981.41
2023-03-11T00:51:29.159Z,981.41
2023-03-11T00:52:01.213Z,981.34
2023-03-11T00:52:33.276Z,981.34
2023-03-11T00:53:05.202Z,981.41
2023-03-11T00:53:37.162Z,981.41
2023-03-11T00:54:09.140Z,981.71
2023-03-11T00:54:34.808Z,981.41
2023-03-11T00:54:57.182Z,981.41
2023-03-11T00:55:29.492Z,981.41
2023-03-11T00:56:02.422Z,981.34
2023-03-11T00:56:33.289Z,981.34
2023-03-11T00:57:05.214Z,981.41
2023-03-11T00:57:37.203Z,981.41
2023-03-11T00:58:09.182Z,981.51
2023-03-11T00:58:34.793Z,981.51
2023-03-11T00:58:57.167Z,981.51
2023-03-11T00:59:29.178Z,981.51
2023-03-11T01:00:04.058Z,981.51
2023-03-11T01:00:33.296Z,981.51
2023-03-11T01:01:05.227Z,981.41
2023-03-11T01:01:37.211Z,981.41
2023-03-11T01:02:09.171Z,981.34
2023-03-11T01:02:34.800Z,981.41
2023-03-11T01:02:57.118Z,981.41
2023-03-11T01:03:29.172Z,981.41
2023-03-11T01:04:01.208Z,981.61
2023-03-11T01:04:33.309Z,981.61
2023-03-11T01:05:05.500Z,981.51
2023-03-11T01:05:38.085Z,981.51
2023-03-11T01:06:09.171Z,981.34
2023-03-11T01:06:44.758Z,981.51
2023-03-11T01:06:57.164Z,981.51
2023-03-11T01:07:29.177Z,981.51
2023-03-11T01:08:01.207Z,981.51
2023-03-11T01:08:33.266Z,981.51
2023-03-11T01:09:05.177Z,981.81
2023-03-11T01:09:37.201Z,981.81
2023-03-11T01:10:09.539Z,981.71
2023-03-11T01:10:34.814Z,981.41
2023-03-11T01:10:57.453Z,981.41
2023-03-11T01:11:29.192Z,981.41
2023-03-11T01:12:02.617Z,981.71
2023-03-11T01:12:33.299Z,981.71
2023-03-11T01:13:05.189Z,981.51
2023-03-11T01:13:37.184Z,981.51
2023-03-11T01:14:09.202Z,981.71
2023-03-11T01:14:34.761Z,981.81
2023-03-11T01:14:57.167Z,981.81
2023-03-11T01:15:29.697Z,981.81
2023-03-11T01:16:03.604Z,981.81
2023-03-11T01:16:33.258Z,981.81
2023-03-11T01:17:05.192Z,982.02
2023-03-11T01:17:37.464Z,982.02
2023-03-11T01:18:09.630Z,981.81
2023-03-11T01:18:34.770Z,981.71
2023-03-11T01:18:57.197Z,981.71
2023-03-11T01:19:29.207Z,981.71
2023-03-11T01:20:03.576Z,981.71
2023-03-11T01:20:33.284Z,981.71
2023-03-11T01:21:05.228Z,981.92
2023-03-11T01:21:38.100Z,981.92
2023-03-11T01:22:09.167Z,981.71
2023-03-11T01:22:35.170Z,982.02
2023-03-11T01:22:57.145Z,982.02
2023-03-11T01:23:29.245Z,982.02
2023-03-11T01:24:01.211Z,981.81
2023-03-11T01:24:33.306Z,981.81
2023-03-11T01:25:05.504Z,981.81
2023-03-11T01:25:37.204Z,981.81
2023-03-11T01:26:09.181Z,982.02
2023-03-11T01:26:34.772Z,981.81
2023-03-11T01:26:57.193Z,981.81
2023-03-11T01:27:29.219Z,981.81
2023-03-11T01:28:02.828Z,981.61
2023-03-11T01:28:33.284Z,981.61
2023-03-11T01:29:05.208Z,981.92
2023-03-11T01:29:37.221Z,981.92
2023-03-11T01:30:11.239Z,982.02
2023-03-11T01:30:34.775Z,981.92
2023-03-11T01:30:57.504Z,981.92
2023-03-11T01:31:29.310Z,981.92
2023-03-11T01:32:01.182Z,981.92
2023-03-11T01:32:33.353Z,981.92
2023-03-11T01:33:05.208Z,981.81
2023-03-11T01:33:37.318Z,981.81
2023-03-11T01:34:09.224Z,982.02
2023-03-11T01:34:34.739Z,982.02
2023-03-11T01:34:57.158Z,982.02
2023-03-11T01:35:29.612Z,982.02
2023-03-11T01:36:01.272Z,982.02
2023-03-11T01:36:33.318Z,982.02
2023-03-11T01:37:05.210Z,981.81
2023-03-11T01:37:38.025Z,981.81
2023-03-11T01:38:09.222Z,981.81
2023-03-11T01:38:34.864Z,981.61
2023-03-11T01:38:57.176Z,981.61
2023-03-11T01:39:29.192Z,981.61
2023-03-11T01:40:03.669Z,981.71
2023-03-11T01:40:33.658Z,981.71
2023-03-11T01:41:05.629Z,981.81
2023-03-11T01:41:37.253Z,981.81
2023-03-11T01:42:09.391Z,981.61
2023-03-11T01:42:34.862Z,981.51
2023-03-11T01:42:58.034Z,981.51
2023-03-11T01:43:29.203Z,981.51
2023-03-11T01:44:02.607Z,981.71
2023-03-11T01:44:33.574Z,981.71
2023-03-11T01:45:06.199Z,981.71
2023-03-11T01:45:37.410Z,981.71
2023-03-11T01:46:09.572Z,981.71
2023-03-11T01:46:35.050Z,981.71
2023-03-11T01:46:57.323Z,981.71
2023-03-11T01:47:29.375Z,981.71
2023-03-11T01:48:01.427Z,981.71
2023-03-11T01:48:33.458Z,981.71
2023-03-11T01:49:05.220Z,981.51
2023-03-11T01:49:37.277Z,981.51
2023-03-11T01:50:09.533Z,981.81
2023-03-11T01:50:35.028Z,981.81
2023-03-11T01:50:57.712Z,981.81
2023-03-11T01:51:29.221Z,981.81
2023-03-11T01:52:01.267Z,981.51
2023-03-11T01:52:33.346Z,981.51
2023-03-11T01:53:05.241Z,981.61
2023-03-11T01:53:37.974Z,981.61
2023-03-11T01:54:09.202Z,981.51
2023-03-11T01:54:34.786Z,981.71
2023-03-11T01:54:57.325Z,981.71
2023-03-11T01:55:29.554Z,981.71
2023-03-11T01:56:01.275Z,981.81
2023-03-11T01:56:33.315Z,981.81
2023-03-11T01:57:05.272Z,981.71
2023-03-11T01:57:37.221Z,981.71
2023-03-11T01:58:09.282Z,981.81
2023-03-11T01:58:34.823Z,981.81
2023-03-11T01:58:57.272Z,981.81
2023-03-11T01:59:29.241Z,981.81
2023-03-11T02:00:04.382Z,981.71
2023-03-11T02:00:33.398Z,981.71
2023-03-11T02:01:05.352Z,981.71
2023-03-11T02:01:38.106Z,981.71
2023-03-11T02:02:09.239Z,982.02
2023-03-11T02:02:34.872Z,981.71
2023-03-11T02:02:57.285Z,981.71
2023-03-11T02:03:29.250Z,981.71
2023-03-11T02:04:01.339Z,982.02
2023-03-11T02:04:33.721Z,982.02
2023-03-11T02:05:05.535Z,981.81
2023-03-11T02:05:37.212Z,981.81
2023-03-11T02:06:09.248Z,981.92
2023-03-11T02:06:34.791Z,982.12
2023-03-11T02:06:57.213Z,982.12
2023-03-11T02:07:29.276Z,982.12
2023-03-11T02:08:01.315Z,982.02
2023-03-11T02:08:33.387Z,982.02
2023-03-11T02:09:05.267Z,981.92
2023-03-11T02:09:38.382Z,981.92
2023-03-11T02:10:09.576Z,982.12
2023-03-11T02:10:34.792Z,982.02
2023-03-11T02:10:57.488Z,982.02
2023-03-11T02:11:29.224Z,982.02
2023-03-11T02:12:01.246Z,982.12
2023-03-11T02:12:33.355Z,982.12
2023-03-11T02:13:05.252Z,982.12
2023-03-11T02:13:37.245Z,982.12
2023-03-11T02:14:09.225Z,982.02
2023-03-11T02:14:34.832Z,982.12
2023-03-11T02:14:57.255Z,982.12
2023-03-11T02:15:29.833Z,982.12
2023-03-11T02:16:04.178Z,981.92
2023-03-11T02:16:33.484Z,981.92
2023-03-11T02:17:05.271Z,982.02
2023-03-11T02:17:37.247Z,982.02
2023-03-11T02:18:09.302Z,982.12
2023-03-11T02:18:35.194Z,982.02
2023-03-11T02:18:57.290Z,982.02
2023-03-11T02:19:29.257Z,982.02
2023-03-11T02:20:04.143Z,982.02
2023-03-11T02:20:33.352Z,982.02
2023-03-11T02:21:05.283Z,982.02
2023-03-11T02:21:37.254Z,982.02
2023-03-11T02:22:09.235Z,981.92
2023-03-11T02:22:34.772Z,982.02
2023-03-11T02:22:57.257Z,982.02
2023-03-11T02:23:29.259Z,982.02
2023-03-11T02:24:01.261Z,981.92
2023-03-11T02:24:33.419Z,981.92
2023-03-11T02:25:05.663Z,982.02
2023-03-11T02:25:38.039Z,982.02
2023-03-11T02:26:09.257Z,982.02
2023-03-11T02:26:34.813Z,982.02
2023-03-11T02:26:57.241Z,982.02
2023-03-11T02:27:29.275Z,982.02
2023-03-11T02:28:01.278Z,982.02
2023-03-11T02:28:33.367Z,982.02
2023-03-11T02:29:05.251Z,982.12
2023-03-11T02:29:37.269Z,982.12
2023-03-11T02:30:11.600Z,981.81
2023-03-11T02:30:34.868Z,981.81
2023-03-11T02:30:57.542Z,981.81
2023-03-11T02:31:29.321Z,981.81
2023-03-11T02:32:02.321Z,982.02
2023-03-11T02:32:33.532Z,982.02
2023-03-11T02:33:05.238Z,981.81
2023-03-11T02:33:37.252Z,981.81
2023-03-11T02:34:09.305Z,982.12
2023-03-11T02:34:34.758Z,981.92
2023-03-11T02:34:57.197Z,981.92
2023-03-11T02:35:29.499Z,981.92
2023-03-11T02:36:01.228Z,982.02
2023-03-11T02:36:33.273Z,982.02
2023-03-11T02:37:05.241Z,982.32
2023-03-11T02:37:37.185Z,982.32
2023-03-11T02:38:09.240Z,982.12
2023-03-11T02:38:34.766Z,982.22
2023-03-11T02:38:57.718Z,982.22
2023-03-11T02:39:29.278Z,982.22
2023-03-11T02:40:03.674Z,982.22
2023-03-11T02:40:33.445Z,982.22
2023-03-11T02:41:05.209Z,982.12
2023-03-11T02:41:37.922Z,982.12
2023-03-11T02:42:09.291Z,982.32
2023-03-11T02:42:34.769Z,982.32
2023-03-11T02:42:57.176Z,982.32
2023-03-11T02:43:29.212Z,982.32
2023-03-11T02:44:01.223Z,982.22
2023-03-11T02:44:33.327Z,982.22
2023-03-11T02:45:05.732Z,982.32
2023-03-11T02:45:37.202Z,982.32
2023-03-11T02:46:09.942Z,982.12
2023-03-11T02:46:34.787Z,982.02
2023-03-11T02:46:57.244Z,982.02
2023-03-11T02:47:29.219Z,982.02
2023-03-11T02:48:02.569Z,982.32
2023-03-11T02:48:33.358Z,982.32
2023-03-11T02:49:05.273Z,982.22
2023-03-11T02:49:37.292Z,982.22
2023-03-11T02:50:09.578Z,982.22
2023-03-11T02:50:34.733Z,982.12
2023-03-11T02:50:57.451Z,982.12
2023-03-11T02:51:29.231Z,982.12
2023-03-11T02:52:01.211Z,982.42
2023-03-11T02:52:33.325Z,982.42
2023-03-11T02:53:05.219Z,982.22
2023-03-11T02:53:37.185Z,982.22
2023-03-11T02:54:09.328Z,982.22
2023-03-11T02:54:34.762Z,982.32
2023-03-11T02:54:57.222Z,982.32
2023-03-11T02:55:29.541Z,982.32
2023-03-11T02:56:01.196Z,982.22
2023-03-11T02:56:33.866Z,982.22
2023-03-11T02:57:05.264Z,982.12
2023-03-11T02:57:37.941Z,982.12
2023-03-11T02:58:09.207Z,982.12
2023-03-11T02:58:34.737Z,982.32
2023-03-11T02:58:57.198Z,982.32
2023-03-11T02:59:29.230Z,982.32
2023-03-11T03:00:04.081Z,982.22
2023-03-11T03:00:33.587Z,982.22
2023-03-11T03:01:05.276Z,982.12
2023-03-11T03:01:37.508Z,982.12
2023-03-11T03:02:09.280Z,982.02
2023-03-11T03:02:34.745Z,982.22
2023-03-11T03:02:57.247Z,982.22
2023-03-11T03:03:29.256Z,982.22
2023-03-11T03:04:03.551Z,982.02
2023-03-11T03:04:33.417Z,982.02
2023-03-11T03:05:05.754Z,982.22
2023-03-11T03:05:37.259Z,982.22
2023-03-11T03:06:09.285Z,982.02
2023-03-11T03:06:34.750Z,982.32
2023-03-11T03:06:57.209Z,982.32
2023-03-11T03:07:29.195Z,982.32
2023-03-11T03:08:01.197Z,982.02
2023-03-11T03:08:33.420Z,982.02
2023-03-11T03:09:05.198Z,982.22
2023-03-11T03:09:37.260Z,982.22
2023-03-11T03:10:09.534Z,982.22
2023-03-11T03:10:34.738Z,982.02
2023-03-11T03:10:57.436Z,982.02
2023-03-11T03:11:29.255Z,982.02
2023-03-11T03:12:01.563Z,982.22
2023-03-11T03:12:33.374Z,982.22
2023-03-11T03:13:05.213Z,982.32
2023-03-11T03:13:38.248Z,982.32
2023-03-11T03:14:09.235Z,982.32
2023-03-11T03:14:34.747Z,982.22
2023-03-11T03:14:57.207Z,982.22
2023-03-11T03:15:29.758Z,982.22
2023-03-11T03:16:03.458Z,982.22
2023-03-11T03:16:33.539Z,982.22
2023-03-11T03:17:05.367Z,982.22
2023-03-11T03:17:37.286Z,982.22
2023-03-11T03:18:09.242Z,982.42
2023-03-11T03:18:34.906Z,982.12
2023-03-11T03:18:57.249Z,982.12
2023-03-11T03:19:29.251Z,982.12
2023-03-11T03:20:04.045Z,982.42
2023-03-11T03:20:33.465Z,982.42
2023-03-11T03:21:05.277Z,982.42
2023-03-11T03:21:37.225Z,982.42
2023-03-11T03:22:09.244Z,982.53
2023-03-11T03:22:34.739Z,982.63
2023-03-11T03:22:57.207Z,982.63
2023-03-11T03:23:29.285Z,982.63
2023-03-11T03:24:01.235Z,982.42
2023-03-11T03:24:33.406Z,982.42
2023-03-11T03:25:05.564Z,982.53
2023-03-11T03:25:37.234Z,982.53
2023-03-11T03:26:09.217Z,982.53
2023-03-11T03:26:35.133Z,982.53
2023-03-11T03:26:57.248Z,982.53
2023-03-11T03:27:29.239Z,982.53
2023-03-11T03:28:01.240Z,982.53
2023-03-11T03:28:33.430Z,982.53
2023-03-11T03:29:05.285Z,982.63
2023-03-11T03:29:37.957Z,982.63
2023-03-11T03:30:11.570Z,982.53
2023-03-11T03:30:35.470Z,982.42
2023-03-11T03:30:58.084Z,982.42
2023-03-11T03:31:29.281Z,982.42
2023-03-11T03:32:01.361Z,982.53
2023-03-11T03:32:33.848Z,982.53
2023-03-11T03:33:05.202Z,982.42
2023-03-11T03:33:37.296Z,982.42
2023-03-11T03:34:09.979Z,982.32
2023-03-11T03:34:34.731Z,982.32
2023-03-11T03:34:57.806Z,982.32
2023-03-11T03:35:29.575Z,982.32
2023-03-11T03:36:02.681Z,982.42
2023-03-11T03:36:33.431Z,982.42
2023-03-11T03:37:05.245Z,982.73
2023-03-11T03:37:37.266Z,982.73
2023-03-11T03:38:09.280Z,982.73
2023-03-11T03:38:34.729Z,982.53
2023-03-11T03:38:57.230Z,982.53
2023-03-11T03:39:30.709Z,982.53
2023-03-11T03:40:03.583Z,982.53
2023-03-11T03:40:33.901Z,982.53
2023-03-11T03:41:05.399Z,982.63
2023-03-11T03:41:37.236Z,982.63
2023-03-11T03:42:09.265Z,982.63
2023-03-11T03:42:35.746Z,982.63
2023-03-11T03:42:57.243Z,982.63
2023-03-11T03:43:29.262Z,982.63
2023-03-11T03:44:01.300Z,982.83
2023-03-11T03:44:33.461Z,982.83
2023-03-11T03:45:05.777Z,982.73
2023-03-11T03:45:38.461Z,982.73
2023-03-11T03:46:10.029Z,982.83
2023-03-11T03:46:34.813Z,982.63
2023-03-11T03:46:57.233Z,982.63
2023-03-11T03:47:29.343Z,982.63
2023-03-11T03:48:01.248Z,982.73
2023-03-11T03:48:33.500Z,982.73
2023-03-11T03:49:05.252Z,982.73
2023-03-11T03:49:37.237Z,982.73
2023-03-11T03:50:09.584Z,982.83
2023-03-11T03:50:34.781Z,983.03
2023-03-11T03:50:58.166Z,983.03
2023-03-11T03:51:29.278Z,983.03
2023-03-11T03:52:02.682Z,982.73
2023-03-11T03:52:33.439Z,982.73
2023-03-11T03:53:05.289Z,982.83
2023-03-11T03:53:37.534Z,982.83
2023-03-11T03:54:09.279Z,983.03
2023-03-11T03:54:34.749Z,982.93
2023-03-11T03:54:57.222Z,982.93
2023-03-11T03:55:29.533Z,982.93
2023-03-11T03:56:01.236Z,982.83
2023-03-11T03:56:33.513Z,982.83
2023-03-11T03:57:05.234Z,982.83
2023-03-11T03:57:37.239Z,982.83
2023-03-11T03:58:09.266Z,982.83
2023-03-11T03:58:34.763Z,982.73
2023-03-11T03:58:57.299Z,982.73
2023-03-11T03:59:29.301Z,982.73
2023-03-11T04:00:04.121Z,982.93
2023-03-11T04:00:33.487Z,982.93
2023-03-11T04:01:05.293Z,983.03
2023-03-11T04:01:38.057Z,983.03
2023-03-11T04:02:09.338Z,982.93
2023-03-11T04:02:34.976Z,982.83
2023-03-11T04:02:57.296Z,982.83
2023-03-11T04:03:29.305Z,982.83
2023-03-11T04:04:01.622Z,982.73
2023-03-11T04:04:34.051Z,982.73
2023-03-11T04:05:05.564Z,982.93
2023-03-11T04:05:37.246Z,982.93
2023-03-11T04:06:09.228Z,982.93
2023-03-11T04:06:35.251Z,982.83
2023-03-11T04:06:57.265Z,982.83
2023-03-11T04:07:29.287Z,982.83
2023-03-11T04:08:02.237Z,982.73
2023-03-11T04:08:33.517Z,982.73
2023-03-11T04:09:05.356Z,982.83
2023-03-11T04:09:37.316Z,982.83
2023-03-11T04:10:09.660Z,982.93
2023-03-11T04:10:34.767Z,983.13
2023-03-11T04:10:57.631Z,983.13
2023-03-11T04:11:29.293Z,983.13
2023-03-11T04:12:01.264Z,983.03
2023-03-11T04:12:33.705Z,983.03
2023-03-11T04:13:05.253Z,982.93
2023-03-11T04:13:37.273Z,982.93
2023-03-11T04:14:09.280Z,982.83
2023-03-11T04:14:34.743Z,983.03
2023-03-11T04:14:57.242Z,983.03
2023-03-11T04:15:29.820Z,983.03
2023-03-11T04:16:03.662Z,983.03
2023-03-11T04:16:33.561Z,983.03
2023-03-11T04:17:05.332Z,983.03
2023-03-11T04:17:38.087Z,983.03
2023-03-11T04:18:09.334Z,983.13
2023-03-11T04:18:34.750Z,983.03
2023-03-11T04:18:57.275Z,983.03
2023-03-11T04:19:29.275Z,983.03
2023-03-11T04:20:03.568Z,982.93
2023-03-11T04:20:34.033Z,982.93
2023-03-11T04:21:05.235Z,983.03
2023-03-11T04:21:37.322Z,983.03
2023-03-11T04:22:09.272Z,983.03
2023-03-11T04:22:34.949Z,983.13
2023-03-11T04:22:57.291Z,983.13
2023-03-11T04:23:29.287Z,983.13
2023-03-11T04:24:02.042Z,983.24
2023-03-11T04:24:33.564Z,983.24
2023-03-11T04:25:05.622Z,983.13
2023-03-11T04:25:37.263Z,983.13
2023-03-11T04:26:10.002Z,983.24
2023-03-11T04:26:34.753Z,983.13
2023-03-11T04:26:57.284Z,983.13
2023-03-11T04:27:29.261Z,983.13
2023-03-11T04:28:01.289Z,983.44
2023-03-11T04:28:33.587Z,983.44
2023-03-11T04:29:05.298Z,983.13
2023-03-11T04:29:37.306Z,983.13
2023-03-11T04:30:11.542Z,983.03
2023-03-11T04:30:34.807Z,983.24
2023-03-11T04:30:57.602Z,983.24
2023-03-11T04:31:29.302Z,983.24
2023-03-11T04:32:01.282Z,983.03
2023-03-11T04:32:33.699Z,983.03
2023-03-11T04:33:05.335Z,983.13
2023-03-11T04:33:38.898Z,983.13
2023-03-11T04:34:09.898Z,983.03
2023-03-11T04:34:34.737Z,983.13
2023-03-11T04:34:57.292Z,983.13
2023-03-11T04:35:29.597Z,983.13
2023-03-11T04:36:01.322Z,982.93
2023-03-11T04:36:33.569Z,982.93
2023-03-11T04:37:05.269Z,983.03
2023-03-11T04:37:37.285Z,983.03
2023-03-11T04:38:09.265Z,983.03
2023-03-11T04:38:35.167Z,983.24
2023-03-11T04:38:57.312Z,983.24
2023-03-11T04:39:29.318Z,983.24
2023-03-11T04:40:03.901Z,983.03
2023-03-11T04:40:33.584Z,983.03
2023-03-11T04:41:05.980Z,983.03
2023-03-11T04:41:37.426Z,983.03
2023-03-11T04:42:09.414Z,983.24
2023-03-11T04:42:34.746Z,983.13
2023-03-11T04:42:57.264Z,983.13
2023-03-11T04:43:29.298Z,983.13
2023-03-11T04:44:01.293Z,983.13
2023-03-11T04:44:34.012Z,983.13
2023-03-11T04:45:05.870Z,983.03
2023-03-11T04:45:37.787Z,983.03
2023-03-11T04:46:09.581Z,983.13
2023-03-11T04:46:34.764Z,983.03
2023-03-11T04:46:57.286Z,983.03
2023-03-11T04:47:29.298Z,983.03
2023-03-11T04:48:01.327Z,982.93
2023-03-11T04:48:33.914Z,982.93
2023-03-11T04:49:05.471Z,983.24
2023-03-11T04:49:39.129Z,983.24
2023-03-11T04:50:09.642Z,983.24
2023-03-11T04:50:34.739Z,983.34
2023-03-11T04:50:57.530Z,983.34
2023-03-11T04:51:29.329Z,983.34
2023-03-11T04:52:01.317Z,983.13
2023-03-11T04:52:33.670Z,983.13
2023-03-11T04:53:05.324Z,983.13
2023-03-11T04:53:37.315Z,983.13
2023-03-11T04:54:09.301Z,983.13
2023-03-11T04:54:34.755Z,983.24
2023-03-11T04:54:57.310Z,983.24
2023-03-11T04:55:29.569Z,983.24
2023-03-11T04:56:02.934Z,983.61
2023-03-11T04:56:33.613Z,983.61
2023-03-11T04:57:05.318Z,983.44
2023-03-11T04:57:37.299Z,983.44
2023-03-11T04:58:09.322Z,983.34
2023-03-11T04:58:34.729Z,983.34
2023-03-11T04:58:57.266Z,983.34
2023-03-11T04:59:29.316Z,983.34
2023-03-11T05:00:04.248Z,983.34
2023-03-11T05:00:33.683Z,983.34
2023-03-11T05:01:05.346Z,983.44
2023-03-11T05:01:37.437Z,983.44
2023-03-11T05:02:09.685Z,983.44
2023-03-11T05:02:34.192Z,983.51
2023-03-11T05:02:56.962Z,983.51
2023-03-11T05:03:29.040Z,983.51
2023-03-11T05:04:00.881Z,983.34
2023-03-11T05:04:32.949Z,983.34
2023-03-11T05:05:05.480Z,983.34
2023-03-11T05:05:37.649Z,983.34
2023-03-11T05:06:09.006Z,983.44
2023-03-11T05:06:35.072Z,983.34
2023-03-11T05:06:57.508Z,983.34
2023-03-11T05:07:29.409Z,983.34
2023-03-11T05:08:01.346Z,983.34
2023-03-11T05:08:33.310Z,983.34
2023-03-11T05:09:05.272Z,983.34
2023-03-11T05:09:37.300Z,983.34
2023-03-11T05:10:09.634Z,983.24
2023-03-11T05:10:34.726Z,983.44
2023-03-11T05:10:57.913Z,983.44
2023-03-11T05:11:29.397Z,983.44
2023-03-11T05:12:03.133Z,983.24
2023-03-11T05:12:33.327Z,983.24
2023-03-11T05:13:05.351Z,983.44
2023-03-11T05:13:37.358Z,983.44
2023-03-11T05:14:09.881Z,983.34
2023-03-11T05:14:34.736Z,983.34
2023-03-11T05:14:57.276Z,983.34
2023-03-11T05:15:29.885Z,983.34
2023-03-11T05:16:03.037Z,983.34
2023-03-11T05:16:33.303Z,983.34
2023-03-11T05:17:05.346Z,983.44
2023-03-11T05:17:37.337Z,983.44
2023-03-11T05:18:09.916Z,983.51
2023-03-11T05:18:34.739Z,983.34
2023-03-11T05:18:57.311Z,983.34
2023-03-11T05:19:29.352Z,983.34
2023-03-11T05:20:03.381Z,983.44
2023-03-11T05:20:34.241Z,983.44
2023-03-11T05:21:05.329Z,983.61
2023-03-11T05:21:39.166Z,983.61
2023-03-11T05:22:09.443Z,983.61
2023-03-11T05:22:34.751Z,983.34
2023-03-11T05:22:57.301Z,983.34
2023-03-11T05:23:29.311Z,983.34
2023-03-11T05:24:01.312Z,983.44
2023-03-11T05:24:33.289Z,983.44
2023-03-11T05:25:05.606Z,983.34
2023-03-11T05:25:37.304Z,983.34
2023-03-11T05:26:09.374Z,983.34
2023-03-11T05:26:34.736Z,983.44
2023-03-11T05:26:57.351Z,983.44
2023-03-11T05:27:29.312Z,983.44
2023-03-11T05:28:02.163Z,983.44
2023-03-11T05:28:33.880Z,983.44
2023-03-11T05:29:05.331Z,983.51
2023-03-11T05:29:37.315Z,983.51
2023-03-11T05:30:11.463Z,983.51
2023-03-11T05:30:35.598Z,983.44
2023-03-11T05:30:57.609Z,983.44
2023-03-11T05:31:29.409Z,983.44
2023-03-11T05:32:01.324Z,983.61
2023-03-11T05:32:33.382Z,983.61
2023-03-11T05:33:05.338Z,983.61
2023-03-11T05:33:37.317Z,983.61
2023-03-11T05:34:09.388Z,983.51
2023-03-11T05:34:34.719Z,983.61
2023-03-11T05:34:57.361Z,983.61
2023-03-11T05:35:29.694Z,983.61
2023-03-11T05:36:01.412Z,983.61
2023-03-11T05:36:33.378Z,983.61
2023-03-11T05:37:05.375Z,983.34
2023-03-11T05:37:37.638Z,983.34
2023-03-11T05:38:09.394Z,983.61
2023-03-11T05:38:34.704Z,983.51
2023-03-11T05:38:57.492Z,983.51
2023-03-11T05:39:30.609Z,983.51
2023-03-11T05:40:03.190Z,983.61
2023-03-11T05:40:33.324Z,983.61
2023-03-11T05:41:05.321Z,983.44
2023-03-11T05:41:37.329Z,983.44
2023-03-11T05:42:09.442Z,983.44
2023-03-11T05:42:35.626Z,983.44
2023-03-11T05:42:57.333Z,983.44
2023-03-11T05:43:29.397Z,983.44
2023-03-11T05:44:01.357Z,983.51
2023-03-11T05:44:33.346Z,983.51
2023-03-11T05:45:05.929Z,983.51
2023-03-11T05:45:38.187Z,983.51
2023-03-11T05:46:10.104Z,983.44
2023-03-11T05:46:34.916Z,983.71
2023-03-11T05:46:57.422Z,983.71
2023-03-11T05:47:29.395Z,983.71
2023-03-11T05:48:01.664Z,983.81
2023-03-11T05:48:33.479Z,983.81
2023-03-11T05:49:05.372Z,983.61
2023-03-11T05:49:37.460Z,983.61
2023-03-11T05:50:09.863Z,983.81
2023-03-11T05:50:35.052Z,983.51
2023-03-11T05:50:57.662Z,983.51
2023-03-11T05:51:29.502Z,983.51
2023-03-11T05:52:02.235Z,983.51
2023-03-11T05:52:33.536Z,983.51
2023-03-11T05:53:05.431Z,983.81
2023-03-11T05:53:37.476Z,983.81
2023-03-11T05:54:10.047Z,983.71
2023-03-11T05:54:34.839Z,983.61
2023-03-11T05:54:57.861Z,983.61
2023-03-11T05:55:29.822Z,983.61
2023-03-11T05:56:01.476Z,983.71
2023-03-11T05:56:33.458Z,983.71
2023-03-11T05:57:05.477Z,983.71
2023-03-11T05:57:37.507Z,983.71
2023-03-11T05:58:09.542Z,983.91
2023-03-11T05:58:34.962Z,983.81
2023-03-11T05:58:57.469Z,983.81
2023-03-11T05:59:29.597Z,983.81
2023-03-11T06:00:03.828Z,984.02
2023-03-11T06:00:33.560Z,984.02
2023-03-11T06:01:05.465Z,983.91
2023-03-11T06:01:38.324Z,983.91
2023-03-11T06:02:09.606Z,983.81
2023-03-11T06:02:35.471Z,983.71
2023-03-11T06:02:57.448Z,983.71
2023-03-11T06:03:29.475Z,983.71
2023-03-11T06:04:01.671Z,983.71
2023-03-11T06:04:33.594Z,983.71
2023-03-11T06:05:08.303Z,983.71
2023-03-11T06:05:37.514Z,983.71
2023-03-11T06:06:10.286Z,983.71
2023-03-11T06:06:34.869Z,983.91
2023-03-11T06:06:57.490Z,983.91
2023-03-11T06:07:29.616Z,983.91
2023-03-11T06:08:02.316Z,983.71
2023-03-11T06:08:33.487Z,983.71
2023-03-11T06:09:05.516Z,983.91
2023-03-11T06:09:37.529Z,983.91
2023-03-11T06:10:09.909Z,983.91
2023-03-11T06:10:34.861Z,983.81
2023-03-11T06:10:58.109Z,983.81
2023-03-11T06:11:29.460Z,983.81
2023-03-11T06:12:01.500Z,983.91
2023-03-11T06:12:33.487Z,983.91
2023-03-11T06:13:05.529Z,983.81
2023-03-11T06:13:37.484Z,983.81
2023-03-11T06:14:09.505Z,983.71